Time;durP1;ratioP1;P1;durP2;ratioP2;P2;SDS_P1;SDS_P2;PMS_P1;PMS_P2;Temp;Humidity;BMP_temperature;BMP_pressure;BME280_temperature;BME280_humidity;BME280_pressure;Samples;Min_cycle;Max_cycle;Signal;HPM_P1;HPM_P2
2022/10/30 00:00:29;;;;;;;5.60;2.58;;;23.10;53.10;22.10;101266.00;;;;5054367;28;20490;-72
2022/10/30 00:02:54;;;;;;;5.05;2.75;;;23.10;53.00;22.10;101267.00;;;;5074696;28;20039;-72
2022/10/30 00:05:20;;;;;;;5.03;3.03;;;23.10;53.00;22.10;101268.00;;;;5054891;28;20205;-72
2022/10/30 00:07:46;;;;;;;3.77;2.50;;;23.10;53.00;22.10;101261.00;;;;5055968;28;20051;-72
2022/10/30 00:10:12;;;;;;;6.63;3.10;;;23.10;53.00;22.10;101267.00;;;;5055059;28;20987;-72
2022/10/30 00:12:38;;;;;;;3.80;2.47;;;23.10;53.00;22.10;101267.00;;;;5055698;28;20029;-72
2022/10/30 00:15:04;;;;;;;4.93;2.30;;;23.10;53.00;22.10;101268.00;;;;5080772;28;20024;-72
2022/10/30 00:17:30;;;;;;;4.63;2.67;;;23.10;53.00;22.10;101273.00;;;;5039177;28;20487;-72
2022/10/30 00:19:56;;;;;;;6.33;2.87;;;23.10;53.00;22.10;101274.00;;;;5055209;28;20265;-72
2022/10/30 00:22:22;;;;;;;4.63;2.90;;;23.10;53.00;22.10;101274.00;;;;5073274;28;20039;-73
2022/10/30 00:24:47;;;;;;;4.60;2.77;;;23.10;53.00;22.10;101270.00;;;;5054976;28;20466;-72
2022/10/30 00:27:13;;;;;;;5.60;2.67;;;23.10;53.00;22.10;101274.00;;;;5071852;28;20111;-72
2022/10/30 00:29:39;;;;;;;3.07;2.77;;;23.10;53.00;22.10;101276.00;;;;5072285;28;20028;-72
2022/10/30 00:32:05;;;;;;;5.30;2.72;;;23.10;53.00;22.10;101274.00;;;;5061248;28;20017;-72
2022/10/30 00:34:30;;;;;;;3.90;2.50;;;23.20;53.00;22.10;101270.00;;;;5072493;28;20039;-72
2022/10/30 00:36:59;;;;;;;4.67;2.57;;;23.10;53.00;22.10;101276.00;;;;5073120;28;20520;-72
2022/10/30 00:39:25;;;;;;;5.03;2.60;;;23.10;53.00;22.10;101269.00;;;;5072448;28;20489;-72
2022/10/30 00:41:50;;;;;;;5.23;3.03;;;23.10;53.00;22.10;101275.00;;;;5073004;28;20029;-72
2022/10/30 00:44:49;;;;;;;7.17;2.63;;;23.10;53.00;22.10;101274.00;;;;5073001;28;20063;-73
2022/10/30 00:47:24;;;;;;;3.15;2.33;;;23.10;53.00;22.10;101283.00;;;;5072406;28;20695;-72
2022/10/30 00:50:07;;;;;;;4.38;2.75;;;23.10;53.00;22.10;101278.00;;;;5072423;28;20028;-72
2022/10/30 00:53:05;;;;;;;3.40;2.22;;;23.10;53.00;22.10;101278.00;;;;5041520;28;20102;-72
2022/10/30 00:55:34;;;;;;;6.65;2.83;;;23.00;53.00;22.10;101278.00;;;;5053225;28;20121;-73
2022/10/30 00:58:02;;;;;;;6.18;2.60;;;23.10;53.00;22.10;101276.00;;;;5062321;28;20035;-72
2022/10/30 01:00:27;;;;;;;3.95;2.60;;;23.10;53.00;22.10;101277.00;;;;5059296;28;20408;-72
2022/10/30 01:02:53;;;;;;;7.53;2.90;;;23.10;53.00;22.10;101281.00;;;;5054981;28;20043;-72
2022/10/30 01:05:20;;;;;;;4.07;2.63;;;23.00;52.90;22.10;101279.00;;;;5079415;28;20116;-72
2022/10/30 01:07:46;;;;;;;6.63;3.03;;;23.00;52.90;22.10;101272.00;;;;5049047;28;20482;-72
2022/10/30 01:10:12;;;;;;;5.73;2.67;;;23.10;53.00;22.10;101280.00;;;;5072037;28;20029;-72
2022/10/30 01:12:38;;;;;;;5.30;2.90;;;23.10;53.00;22.10;101283.00;;;;5071738;28;20024;-72
2022/10/30 01:15:04;;;;;;;5.07;2.57;;;23.00;52.90;22.10;101286.00;;;;5080753;28;20027;-72
2022/10/30 01:17:49;;;;;;;5.20;2.78;;;23.10;52.90;22.10;101282.00;;;;5056900;28;20976;-72
2022/10/30 01:20:53;;;;;;;3.83;2.80;;;23.00;52.90;22.10;101284.00;;;;5053179;28;20036;-72
2022/10/30 01:24:11;;;;;;;5.53;2.72;;;23.00;52.90;22.10;101286.00;;;;5068937;28;20220;-72
2022/10/30 01:27:05;;;;;;;3.80;2.35;;;23.10;52.90;22.00;101285.00;;;;5053599;28;20036;-72
2022/10/30 01:29:39;;;;;;;3.97;2.50;;;23.10;52.90;22.00;101279.00;;;;5070348;28;20098;-72
2022/10/30 01:32:30;;;;;;;5.30;2.85;;;23.10;52.90;22.00;101287.00;;;;5050017;28;20385;-73
2022/10/30 01:35:31;;;;;;;4.38;2.38;;;23.00;52.90;22.00;101288.00;;;;5050326;28;20028;-72
2022/10/30 01:38:19;;;;;;;4.60;2.63;;;23.00;52.90;22.00;101279.00;;;;5065972;28;20111;-72
2022/10/30 01:40:45;;;;;;;5.47;2.80;;;23.00;52.90;22.00;101290.00;;;;5037191;28;20486;-72
2022/10/30 01:43:11;;;;;;;5.90;2.93;;;23.00;52.90;22.00;101286.00;;;;5072627;28;20027;-72
2022/10/30 01:46:01;;;;;;;3.07;2.47;;;23.00;52.90;22.00;101288.00;;;;5070595;28;20031;-72
2022/10/30 01:49:14;;;;;;;3.45;2.30;;;23.00;52.90;22.00;101298.00;;;;5069444;28;20458;-72
2022/10/30 01:52:11;;;;;;;5.15;3.25;;;23.00;52.90;22.00;101290.00;;;;5050104;28;20433;-72
2022/10/30 01:55:02;;;;;;;6.22;2.85;;;23.00;52.80;22.00;101295.00;;;;5064324;28;20086;-72
2022/10/30 01:57:48;;;;;;;4.75;2.88;;;23.00;52.90;22.00;101298.00;;;;5054885;28;20032;-72
2022/10/30 02:00:15;;;;;;;3.90;2.20;;;23.00;52.80;22.00;101299.00;;;;5053020;28;20354;-72
2022/10/30 02:02:41;;;;;;;4.50;2.70;;;23.00;52.90;22.00;101287.00;;;;5037829;28;20024;-72
2022/10/30 02:05:07;;;;;;;3.05;2.63;;;23.00;52.90;22.00;101287.00;;;;5052856;28;20025;-72
2022/10/30 02:07:34;;;;;;;;;;;23.00;52.90;22.00;101292.00;;;;5072798;28;20024;-72
2022/10/30 02:10:00;;;;;;;4.30;2.77;;;23.00;53.00;22.00;101292.00;;;;5051306;28;19920;-72
2022/10/30 02:12:26;;;;;;;4.37;3.00;;;23.00;52.80;22.00;101282.00;;;;5053923;28;20060;-72
2022/10/30 02:15:12;;;;;;;5.30;3.00;;;23.00;52.80;22.00;101283.00;;;;5052673;28;20549;-72
2022/10/30 02:17:39;;;;;;;7.75;3.67;;;23.00;52.70;22.00;101280.00;;;;5056493;28;20016;-72
2022/10/30 02:20:06;;;;;;;4.57;2.50;;;23.00;52.70;22.00;101282.00;;;;5053180;28;20017;-72
2022/10/30 02:22:32;;;;;;;5.85;2.78;;;23.00;52.70;22.00;101281.00;;;;5052025;28;20100;-72
2022/10/30 02:24:58;;;;;;;6.63;2.70;;;23.00;52.70;22.00;101282.00;;;;5052703;28;20033;-72
2022/10/30 02:27:23;;;;;;;5.47;3.10;;;23.00;52.80;22.00;101289.00;;;;5072273;28;20048;-72
2022/10/30 02:29:49;;;;;;;4.80;2.30;;;23.00;52.70;22.00;101289.00;;;;5069667;28;20470;-72
2022/10/30 02:32:15;;;;;;;5.13;2.73;;;23.00;52.70;22.00;101289.00;;;;5071468;28;20108;-72
2022/10/30 02:34:41;;;;;;;5.60;2.80;;;23.00;52.70;22.00;101287.00;;;;5070267;28;20564;-72
2022/10/30 02:37:07;;;;;;;;;;;23.10;52.70;22.00;101279.00;;;;5071654;28;20027;-73
2022/10/30 02:39:33;;;;;;;8.07;2.80;;;23.00;52.90;22.00;101283.00;;;;5070273;28;20259;-72
2022/10/30 02:42:00;;;;;;;5.53;2.80;;;23.10;52.70;22.00;101283.00;;;;5070134;28;20117;-72
2022/10/30 02:44:26;;;;;;;3.47;2.83;;;23.10;52.70;22.00;101285.00;;;;5070226;28;20111;-72
2022/10/30 02:46:52;;;;;;;4.35;2.60;;;23.00;52.60;22.00;101275.00;;;;5076418;28;20122;-72
2022/10/30 02:49:18;;;;;;;7.03;3.30;;;23.00;52.60;22.00;101283.00;;;;5069969;28;20033;-72
2022/10/30 02:51:43;;;;;;;6.40;2.73;;;23.00;52.60;22.00;101276.00;;;;5070774;28;20987;-72
2022/10/30 02:54:09;;;;;;;4.37;2.63;;;23.00;52.60;22.00;101272.00;;;;5069459;28;20112;-72
2022/10/30 02:56:35;;;;;;;6.63;2.77;;;23.00;52.60;22.00;101266.00;;;;5071126;28;20474;-72
2022/10/30 02:59:01;;;;;;;4.73;2.83;;;23.00;52.70;22.00;101269.00;;;;5051698;28;20126;-72
2022/10/30 03:01:26;;;;;;;4.53;2.50;;;23.00;52.60;22.00;101282.00;;;;5070827;28;20489;-72
2022/10/30 03:03:52;;;;;;;4.13;2.70;;;23.00;52.60;22.00;101282.00;;;;5069388;28;20566;-72
2022/10/30 03:06:18;;;;;;;4.83;2.87;;;23.10;52.70;22.00;101287.00;;;;5068066;28;20138;-72
2022/10/30 03:08:44;;;;;;;6.67;3.97;;;22.90;52.50;22.00;101288.00;;;;5069940;28;20449;-73
2022/10/30 03:11:14;;;;;;;3.97;2.80;;;23.00;52.60;22.00;101287.00;;;;5069031;28;20486;-72
2022/10/30 03:13:41;;;;;;;3.85;2.65;;;23.00;52.60;22.00;101288.00;;;;5069796;28;20469;-72
2022/10/30 03:16:12;;;;;;;4.78;2.80;;;23.00;52.60;22.00;101288.00;;;;5070268;28;20090;-72
2022/10/30 03:18:38;;;;;;;5.72;3.05;;;22.90;52.50;22.00;101294.00;;;;5053861;28;20031;-72
2022/10/30 03:21:05;;;;;;;7.80;3.88;;;22.90;52.60;22.00;101294.00;;;;5051200;28;20474;-72
2022/10/30 03:23:31;;;;;;;5.50;2.78;;;22.90;52.60;22.00;101293.00;;;;5069398;28;20089;-72
2022/10/30 03:25:57;;;;;;;5.87;2.60;;;22.90;52.60;22.00;101298.00;;;;5070841;28;20028;-72
2022/10/30 03:28:25;;;;;;;7.38;2.97;;;22.90;52.60;22.00;101290.00;;;;5051005;28;20039;-73
2022/10/30 03:30:56;;;;;;;6.40;3.30;;;23.00;52.70;22.00;101292.00;;;;5053069;28;20051;-73
2022/10/30 03:33:21;;;;;;;5.07;2.67;;;22.90;52.60;22.00;101290.00;;;;5051883;28;20043;-72
2022/10/30 03:35:47;;;;;;;5.43;3.20;;;22.90;52.60;22.00;101289.00;;;;5069607;28;20382;-72
2022/10/30 03:38:13;;;;;;;7.00;2.80;;;22.90;52.60;22.00;101299.00;;;;5068940;28;20098;-72
2022/10/30 03:40:39;;;;;;;4.90;2.70;;;22.90;52.60;22.00;101298.00;;;;5051852;28;20466;-72
2022/10/30 03:43:05;;;;;;;6.43;3.20;;;22.90;52.60;22.00;101298.00;;;;5053038;28;20078;-72
2022/10/30 03:45:32;;;;;;;3.75;2.58;;;22.90;52.60;22.00;101290.00;;;;5073647;28;20045;-72
2022/10/30 03:48:00;;;;;;;4.43;2.90;;;22.90;52.60;22.00;101303.00;;;;5051455;28;20107;-72
2022/10/30 03:50:25;;;;;;;4.00;2.33;;;22.90;52.60;22.00;101300.00;;;;5051178;28;20082;-72
2022/10/30 03:52:56;;;;;;;6.07;2.90;;;22.80;52.60;22.00;101307.00;;;;5069628;28;20024;-72
2022/10/30 03:55:21;;;;;;;3.38;2.47;;;22.90;52.70;22.00;101299.00;;;;5070041;28;20363;-72
2022/10/30 03:57:47;;;;;;;5.10;3.10;;;22.80;52.60;21.90;101297.00;;;;5070070;28;20038;-72
2022/10/30 04:00:13;;;;;;;3.87;2.60;;;22.90;52.70;21.90;101303.00;;;;5068932;28;20043;-72
2022/10/30 04:02:49;;;;;;;4.20;2.75;;;22.80;52.60;21.90;101305.00;;;;5074554;28;20367;-72
2022/10/30 04:05:19;;;;;;;5.18;3.08;;;22.80;52.60;21.90;101303.00;;;;5051470;28;20041;-72
2022/10/30 04:07:45;;;;;;;4.18;2.63;;;22.80;52.60;21.90;101311.00;;;;5069371;28;20355;-72
2022/10/30 04:10:11;;;;;;;5.82;2.90;;;22.80;52.60;21.90;101308.00;;;;5068346;28;20037;-72
2022/10/30 04:12:37;;;;;;;5.75;2.63;;;22.80;52.60;21.90;101308.00;;;;5070964;28;20016;-72
2022/10/30 04:15:05;;;;;;;5.10;2.75;;;22.80;52.60;21.90;101308.00;;;;5050648;28;20470;-72
2022/10/30 04:17:30;;;;;;;3.80;2.78;;;22.80;52.60;21.90;101294.00;;;;5053039;28;20036;-72
2022/10/30 04:19:56;;;;;;;4.97;2.87;;;22.80;52.60;21.90;101291.00;;;;5058931;28;20470;-72
2022/10/30 04:22:22;;;;;;;6.23;2.97;;;22.80;52.60;21.90;101295.00;;;;5069800;28;20494;-72
2022/10/30 04:24:48;;;;;;;4.83;2.83;;;22.80;52.60;21.90;101296.00;;;;5051579;28;20068;-72
2022/10/30 04:27:14;;;;;;;5.70;2.97;;;22.80;52.60;21.90;101309.00;;;;5069570;28;20060;-72
2022/10/30 04:29:43;;;;;;;3.75;2.78;;;22.80;52.60;21.90;101307.00;;;;5051079;28;20824;-72
2022/10/30 04:32:09;;;;;;;4.15;2.83;;;22.70;52.60;21.90;101298.00;;;;5069372;28;20032;-72
2022/10/30 04:34:35;;;;;;;3.05;2.65;;;22.80;52.60;21.90;101296.00;;;;5068266;28;20115;-72
2022/10/30 04:37:01;;;;;;;6.88;3.00;;;22.80;52.60;21.90;101298.00;;;;5069996;28;20107;-72
2022/10/30 04:39:27;;;;;;;4.72;2.70;;;22.70;52.60;21.90;101299.00;;;;5045367;28;20038;-72
2022/10/30 04:41:52;;;;;;;8.13;2.87;;;22.70;52.50;21.90;101298.00;;;;5070093;28;20032;-72
2022/10/30 04:44:18;;;;;;;6.60;2.90;;;22.70;52.50;21.90;101302.00;;;;5068095;28;20068;-72
2022/10/30 04:46:44;;;;;;;4.53;3.20;;;22.80;52.70;21.90;101305.00;;;;5072292;28;20386;-72
2022/10/30 04:49:10;;;;;;;5.97;3.00;;;22.80;52.60;21.90;101305.00;;;;5072975;28;20067;-72
2022/10/30 04:51:35;;;;;;;5.75;3.08;;;22.80;52.80;21.90;101310.00;;;;5072242;28;20109;-72
2022/10/30 04:54:01;;;;;;;3.87;2.77;;;22.70;52.60;21.90;101301.00;;;;5083753;28;20039;-72
2022/10/30 04:56:27;;;;;;;4.13;2.90;;;22.80;52.60;21.90;101306.00;;;;5072157;28;20075;-72
2022/10/30 04:58:53;;;;;;;5.50;3.33;;;22.70;52.50;21.90;101300.00;;;;5073655;28;20048;-72
2022/10/30 05:01:18;;;;;;;6.97;3.23;;;22.70;52.60;21.90;101292.00;;;;5070728;28;20498;-72
2022/10/30 05:03:44;;;;;;;4.07;3.00;;;22.80;52.60;21.90;101298.00;;;;5071578;28;20824;-73
2022/10/30 05:06:25;;;;;;;3.30;2.43;;;22.70;52.50;21.90;101292.00;;;;5073227;28;20308;-72
2022/10/30 05:08:51;;;;;;;3.78;2.60;;;22.70;52.50;21.90;101295.00;;;;5039737;28;20478;-72
2022/10/30 05:11:17;;;;;;;4.50;2.60;;;22.70;52.50;21.90;101292.00;;;;5071401;28;20035;-72
2022/10/30 05:13:42;;;;;;;4.23;2.97;;;22.70;52.50;21.90;101290.00;;;;5056386;28;20063;-72
2022/10/30 05:16:08;;;;;;;3.70;2.75;;;22.70;52.50;21.90;101282.00;;;;5071908;28;20032;-72
2022/10/30 05:18:34;;;;;;;6.25;2.80;;;22.70;52.50;21.90;101280.00;;;;5054547;28;20477;-72
2022/10/30 05:21:00;;;;;;;5.77;2.87;;;22.70;52.50;21.80;101285.00;;;;5071831;28;20526;-72
2022/10/30 05:23:25;;;;;;;4.33;2.63;;;22.70;52.40;21.90;101286.00;;;;5073558;28;20852;-72
2022/10/30 05:25:51;;;;;;;5.63;2.60;;;22.80;52.50;21.90;101285.00;;;;5071786;28;20484;-72
2022/10/30 05:28:17;;;;;;;7.30;2.60;;;22.70;52.40;21.90;101276.00;;;;5071699;28;20036;-72
2022/10/30 05:30:43;;;;;;;3.27;2.40;;;22.60;52.40;21.80;101281.00;;;;5072284;28;20421;-73
2022/10/30 05:33:10;;;;;;;6.00;2.70;;;22.70;52.40;21.80;101276.00;;;;5054526;28;20999;-72
2022/10/30 05:35:35;;;;;;;4.15;2.60;;;22.70;52.40;21.80;101272.00;;;;5053776;28;20497;-72
2022/10/30 05:38:04;;;;;;;4.80;2.85;;;22.70;52.40;21.80;101285.00;;;;5063130;28;20135;-72
2022/10/30 05:40:30;;;;;;;5.47;3.05;;;22.70;52.40;21.80;101284.00;;;;5066718;28;20025;-73
2022/10/30 05:42:56;;;;;;;4.50;2.97;;;22.70;52.40;21.80;101282.00;;;;5069481;28;20044;-72
2022/10/30 05:45:22;;;;;;;3.47;2.53;;;22.70;52.40;21.80;101293.00;;;;5036203;28;20041;-72
2022/10/30 05:47:55;;;;;;;4.28;3.17;;;22.70;52.40;21.80;101293.00;;;;5054531;28;20028;-73
2022/10/30 05:50:21;;;;;;;4.00;2.72;;;22.70;52.40;21.80;101291.00;;;;5052703;28;20036;-72
2022/10/30 05:52:47;;;;;;;4.67;2.80;;;22.70;52.40;21.80;101292.00;;;;5072395;28;20039;-72
2022/10/30 05:55:12;;;;;;;2.97;2.40;;;22.70;52.40;21.80;101285.00;;;;5070263;28;20063;-72
2022/10/30 05:57:38;;;;;;;5.47;2.50;;;22.70;52.40;21.80;101287.00;;;;5070969;28;20056;-72
2022/10/30 06:00:05;;;;;;;4.67;2.50;;;22.80;52.50;21.80;101293.00;;;;5067864;28;20466;-73
2022/10/30 06:02:31;;;;;;;;;;;22.70;52.40;21.80;101298.00;;;;5053986;28;20482;-72
2022/10/30 06:04:57;;;;;;;4.63;2.05;;;22.60;52.50;21.80;101298.00;;;;5071118;28;19958;-72
2022/10/30 06:07:22;;;;;;;5.83;3.20;;;22.70;52.30;21.80;101294.00;;;;5053574;28;20040;-72
2022/10/30 06:09:48;;;;;;;5.17;2.80;;;22.70;52.30;21.80;101288.00;;;;5069657;28;20072;-73
2022/10/30 06:12:14;;;;;;;3.87;2.70;;;22.70;52.30;21.80;101294.00;;;;5074173;28;20056;-72
2022/10/30 06:14:40;;;;;;;3.87;2.63;;;22.60;52.30;21.80;101297.00;;;;5070175;28;20064;-72
2022/10/30 06:17:05;;;;;;;6.00;2.70;;;22.60;52.30;21.80;101302.00;;;;5071925;28;20107;-73
2022/10/30 06:19:31;;;;;;;6.73;2.77;;;22.60;52.30;21.80;101300.00;;;;5068544;28;20494;-73
2022/10/30 06:21:57;;;;;;;5.80;3.03;;;22.70;52.30;21.80;101303.00;;;;5069187;28;20120;-72
2022/10/30 06:24:22;;;;;;;3.77;2.23;;;22.60;52.30;21.80;101299.00;;;;5052684;28;20111;-72
2022/10/30 06:26:49;;;;;;;4.13;2.17;;;22.60;52.30;21.70;101304.00;;;;5053047;28;20072;-72
2022/10/30 06:29:15;;;;;;;6.60;2.50;;;22.60;52.20;21.80;101306.00;;;;5070401;28;20094;-72
2022/10/30 06:31:41;;;;;;;6.30;2.77;;;22.60;52.30;21.70;101305.00;;;;5068181;28;20028;-72
2022/10/30 06:34:07;;;;;;;3.70;2.70;;;22.60;52.20;21.70;101303.00;;;;5049142;28;20035;-72
2022/10/30 06:36:32;;;;;;;2.97;2.17;;;22.70;52.30;21.70;101311.00;;;;5067618;28;21092;-72
2022/10/30 06:38:58;;;;;;;6.73;2.73;;;22.60;52.20;21.70;101314.00;;;;5063820;28;20635;-72
2022/10/30 06:41:24;;;;;;;4.03;2.50;;;22.50;52.20;21.70;101311.00;;;;5068289;28;20032;-72
2022/10/30 06:43:50;;;;;;;5.73;3.33;;;22.50;52.10;21.70;101309.00;;;;5066514;28;20044;-72
2022/10/30 06:46:15;;;;;;;3.10;2.60;;;22.60;52.20;21.70;101309.00;;;;5058318;28;20112;-72
2022/10/30 06:48:41;;;;;;;5.70;2.60;;;22.60;52.20;21.70;101325.00;;;;5061931;28;20128;-72
2022/10/30 06:51:07;;;;;;;5.03;2.43;;;22.60;52.20;21.70;101325.00;;;;5067092;28;20059;-72
2022/10/30 06:53:32;;;;;;;4.23;2.50;;;22.50;52.10;21.70;101328.00;;;;5066157;28;20112;-72
2022/10/30 06:56:00;;;;;;;4.10;2.70;;;22.50;52.10;21.70;101327.00;;;;5062039;28;20695;-72
2022/10/30 06:58:26;;;;;;;3.53;2.50;;;22.60;52.20;21.70;101322.00;;;;5065277;28;20542;-73
2022/10/30 07:00:52;;;;;;;4.75;2.83;;;22.60;52.20;21.70;101327.00;;;;5052176;28;20024;-73
2022/10/30 07:03:18;;;;;;;5.18;2.70;;;22.60;52.20;21.70;101337.00;;;;5064455;28;20410;-72
2022/10/30 07:05:44;;;;;;;5.00;2.60;;;22.60;52.20;21.70;101330.00;;;;5051742;28;20043;-73
2022/10/30 07:08:09;;;;;;;4.35;2.33;;;22.50;52.10;21.70;101324.00;;;;5070457;28;20036;-73
2022/10/30 07:10:35;;;;;;;3.13;2.40;;;22.60;52.20;21.70;101327.00;;;;5068919;28;20438;-73
2022/10/30 07:13:01;;;;;;;4.00;2.60;;;22.50;52.10;21.70;101328.00;;;;5042118;28;20024;-72
2022/10/30 07:15:27;;;;;;;5.80;2.60;;;22.50;52.10;21.70;101331.00;;;;5066017;28;20573;-73
2022/10/30 07:17:57;;;;;;;5.73;2.93;;;22.50;52.20;21.70;101328.00;;;;5058134;28;20112;-72
2022/10/30 07:20:24;;;;;;;4.45;2.72;;;22.50;52.10;21.70;101325.00;;;;5045526;28;20064;-72
2022/10/30 07:22:50;;;;;;;;;;;22.50;52.10;21.60;101328.00;;;;5045734;28;20036;-73
2022/10/30 07:25:15;;;;;;;4.60;2.72;;;22.50;52.30;21.60;101332.00;;;;5069305;28;19916;-72
2022/10/30 07:27:44;;;;;;;6.18;2.65;;;22.60;52.10;21.60;101324.00;;;;5066869;28;20029;-72
2022/10/30 07:30:14;;;;;;;6.68;2.80;;;22.50;52.00;21.60;101322.00;;;;5061164;28;20044;-72
2022/10/30 07:32:40;;;;;;;6.43;2.95;;;22.50;52.00;21.60;101322.00;;;;5032486;28;20482;-72
2022/10/30 07:35:06;;;;;;;7.13;3.10;;;22.50;52.10;21.60;101335.00;;;;5064474;28;20025;-72
2022/10/30 07:37:32;;;;;;;4.45;2.58;;;22.50;52.00;21.60;101345.00;;;;5064410;28;20459;-72
2022/10/30 07:39:58;;;;;;;4.33;2.37;;;22.50;52.10;21.60;101351.00;;;;5068488;28;20043;-72
2022/10/30 07:42:23;;;;;;;3.27;2.33;;;22.50;52.10;21.60;101356.00;;;;5065539;28;20895;-73
2022/10/30 07:44:49;;;;;;;3.90;2.60;;;22.50;52.00;21.60;101343.00;;;;5069352;28;20154;-72
2022/10/30 07:47:15;;;;;;;5.10;2.63;;;22.50;52.10;21.60;101362.00;;;;5079007;28;20087;-75
2022/10/30 07:49:41;;;;;;;5.20;2.80;;;22.40;52.00;21.60;101356.00;;;;5067130;28;20029;-75
2022/10/30 07:52:06;;;;;;;5.13;3.10;;;22.50;52.10;21.60;101358.00;;;;5065561;28;20490;-75
2022/10/30 07:54:32;;;;;;;4.77;2.40;;;22.50;52.00;21.60;101348.00;;;;5067268;28;20082;-74
2022/10/30 07:56:58;;;;;;;4.28;2.83;;;22.60;52.10;21.60;101351.00;;;;5052678;28;20247;-74
2022/10/30 07:59:24;;;;;;;3.57;2.33;;;22.50;52.00;21.60;101347.00;;;;5065618;28;20046;-71
2022/10/30 08:01:50;;;;;;;2.85;2.40;;;22.50;52.00;21.60;101348.00;;;;5047791;28;20816;-72
2022/10/30 08:04:16;;;;;;;4.83;2.83;;;22.50;52.00;21.60;101351.00;;;;5049583;28;20040;-71
2022/10/30 08:06:41;;;;;;;4.87;3.20;;;22.50;52.00;21.60;101355.00;;;;5066337;28;20451;-71
2022/10/30 08:09:07;;;;;;;4.67;2.83;;;22.50;52.70;21.70;101364.00;;;;5067051;28;20489;-71
2022/10/30 08:11:33;;;;;;;7.47;2.83;;;22.50;52.00;21.60;101362.00;;;;5069742;28;20489;-70
2022/10/30 08:13:59;;;;;;;4.00;2.33;;;22.50;52.00;21.60;101359.00;;;;5065133;28;20562;-70
2022/10/30 08:16:25;;;;;;;3.60;2.67;;;22.50;52.00;21.70;101357.00;;;;5050891;28;20111;-70
2022/10/30 08:18:50;;;;;;;6.07;2.87;;;22.50;52.00;21.70;101349.00;;;;5064874;28;20036;-70
2022/10/30 08:21:16;;;;;;;6.30;2.80;;;22.50;52.00;21.70;101351.00;;;;5071236;28;20549;-70
2022/10/30 08:23:42;;;;;;;4.53;2.57;;;22.50;52.00;21.70;101343.00;;;;5072048;28;20116;-72
2022/10/30 08:26:08;;;;;;;5.30;2.70;;;22.60;52.00;21.70;101344.00;;;;5073655;28;20128;-71
2022/10/30 08:28:33;;;;;;;5.77;2.70;;;22.50;52.00;21.70;101337.00;;;;5071557;28;20119;-71
2022/10/30 08:31:00;;;;;;;5.93;2.87;;;22.60;52.00;21.70;101341.00;;;;5081005;28;20024;-70
2022/10/30 08:33:25;;;;;;;4.30;2.67;;;22.50;51.90;21.70;101335.00;;;;5071221;28;20068;-70
2022/10/30 08:35:55;;;;;;;5.80;2.33;;;22.60;52.00;21.70;101333.00;;;;5070549;28;20027;-71
2022/10/30 08:38:21;;;;;;;4.63;2.80;;;22.60;51.90;21.70;101328.00;;;;5070733;28;20462;-71
2022/10/30 08:40:46;;;;;;;5.20;2.97;;;22.50;51.90;21.70;101331.00;;;;5068521;28;20553;-71
2022/10/30 08:43:12;;;;;;;5.00;2.83;;;22.60;51.90;21.70;101331.00;;;;5068454;28;20423;-71
2022/10/30 08:45:38;;;;;;;6.77;2.87;;;22.60;52.60;21.70;101328.00;;;;5069943;28;20776;-71
2022/10/30 08:48:05;;;;;;;4.30;2.63;;;22.60;51.90;21.70;101331.00;;;;5072192;28;20489;-70
2022/10/30 08:50:31;;;;;;;;;;;22.60;51.90;21.70;101331.00;;;;5038957;28;20035;-71
2022/10/30 08:53:03;;;;;;;5.55;2.90;;;22.70;52.10;21.70;101323.00;;;;5072092;28;19959;-72
2022/10/30 08:55:30;;;;;;;4.38;2.60;;;22.60;51.70;21.70;101330.00;;;;5071335;28;20068;-75
2022/10/30 08:57:55;;;;;;;6.05;3.22;;;22.70;51.80;21.70;101323.00;;;;5069643;28;20028;-74
2022/10/30 09:00:21;;;;;;;3.93;3.00;;;22.60;51.80;21.70;101315.00;;;;5069378;28;20500;-74
2022/10/30 09:02:47;;;;;;;5.20;3.10;;;22.60;51.80;21.70;101315.00;;;;5071041;28;20602;-75
2022/10/30 09:05:13;;;;;;;6.70;2.60;;;22.70;51.80;21.70;101318.00;;;;5049625;28;20596;-75
2022/10/30 09:07:38;;;;;;;5.75;2.97;;;22.60;51.80;21.70;101315.00;;;;5068807;28;20036;-74
2022/10/30 09:10:05;;;;;;;4.80;2.77;;;22.60;51.80;21.70;101318.00;;;;5071499;28;20032;-75
2022/10/30 09:12:30;;;;;;;3.15;2.70;;;22.60;51.80;21.70;101318.00;;;;5071597;28;20475;-75
2022/10/30 09:14:56;;;;;;;4.63;3.03;;;22.70;51.80;21.70;101326.00;;;;5071351;28;20405;-75
2022/10/30 09:17:22;;;;;;;5.87;2.67;;;22.70;51.80;21.70;101317.00;;;;5054214;28;20568;-75
2022/10/30 09:19:48;;;;;;;6.60;2.90;;;22.70;51.80;21.70;101310.00;;;;5071713;28;20028;-80
2022/10/30 09:22:13;;;;;;;3.97;2.63;;;22.60;51.80;21.70;101299.00;;;;5072167;28;20552;-75
2022/10/30 09:24:39;;;;;;;14.07;3.47;;;22.70;51.80;21.70;101299.00;;;;5071815;28;20403;-76
2022/10/30 09:27:05;;;;;;;9.90;4.18;;;22.70;51.80;21.70;101311.00;;;;5072410;28;20107;-75
2022/10/30 09:29:31;;;;;;;6.57;4.10;;;22.70;51.70;21.70;101313.00;;;;5071709;28;20573;-76
2022/10/30 09:31:58;;;;;;;7.93;4.68;;;22.70;51.60;21.70;101311.00;;;;5053552;28;20032;-75
2022/10/30 09:34:24;;;;;;;9.05;4.32;;;22.80;51.70;21.60;101315.00;;;;5053485;28;20501;-75
2022/10/30 09:36:49;;;;;;;8.40;3.40;;;22.70;51.60;21.60;101317.00;;;;5072383;28;20073;-75
2022/10/30 09:39:15;;;;;;;6.03;3.67;;;22.70;51.70;21.60;101314.00;;;;5071179;28;20491;-75
2022/10/30 09:42:28;;;;;;;6.60;3.87;;;22.70;51.70;21.60;101318.00;;;;5070911;28;20078;-75
2022/10/30 09:45:30;;;;;;;7.20;3.88;;;22.70;51.80;21.50;101306.00;;;;5061378;28;20032;-76
2022/10/30 09:48:02;;;;;;;7.82;3.17;;;22.60;51.70;21.50;101314.00;;;;5060621;28;20033;-75
2022/10/30 09:50:31;;;;;;;7.30;3.75;;;22.70;51.80;21.50;101302.00;;;;5051340;28;20028;-75
2022/10/30 09:53:10;;;;;;;8.98;4.22;;;22.60;51.90;21.50;101316.00;;;;5030131;28;20021;-75
2022/10/30 09:55:59;;;;;;;10.68;4.63;;;22.60;51.90;21.50;101315.00;;;;5050530;28;20037;-75
2022/10/30 09:58:59;;;;;;;8.90;4.28;;;22.60;52.00;21.50;101314.00;;;;5055164;28;20093;-75
2022/10/30 10:02:01;;;;;;;7.50;4.03;;;22.60;52.10;21.50;101312.00;;;;5052739;28;20075;-74
2022/10/30 10:04:37;;;;;;;7.15;4.18;;;22.60;52.20;21.50;101310.00;;;;5029957;28;20508;-75
2022/10/30 10:07:14;;;;;;;4.22;3.53;;;22.60;52.10;21.50;101307.00;;;;5066617;28;20028;-75
2022/10/30 10:09:40;;;;;;;11.55;4.25;;;22.50;52.10;21.50;101308.00;;;;5053170;28;20104;-77
2022/10/30 10:12:19;;;;;;;11.52;3.90;;;22.60;52.20;21.50;101309.00;;;;5052365;28;20025;-75
2022/10/30 10:14:45;;;;;;;8.98;3.88;;;22.50;52.20;21.50;101311.00;;;;5037912;28;20028;-76
2022/10/30 10:17:21;;;;;;;8.27;4.20;;;22.60;52.20;21.50;101306.00;;;;5061987;28;20408;-80
2022/10/30 10:19:52;;;;;;;9.35;3.58;;;22.60;52.30;21.50;101310.00;;;;5049418;28;20359;-76
2022/10/30 10:22:29;;;;;;;6.55;3.72;;;22.50;52.20;21.50;101306.00;;;;5052799;28;20032;-76
2022/10/30 10:24:55;;;;;;;7.07;3.78;;;22.60;52.30;21.50;101304.00;;;;5069169;28;20043;-76
2022/10/30 10:27:45;;;;;;;8.60;3.63;;;22.60;52.30;21.50;101293.00;;;;5057570;28;20025;-76
2022/10/30 10:30:21;;;;;;;9.68;3.85;;;22.60;52.30;21.50;101289.00;;;;5066496;28;20028;-76
2022/10/30 10:33:45;;;;;;;7.95;3.72;;;22.50;52.30;21.60;101293.00;;;;5035557;28;20475;-76
2022/10/30 10:36:26;;;;;;;5.30;3.40;;;22.60;52.40;21.50;101287.00;;;;5051989;28;20024;-76
2022/10/30 10:39:51;;;;;;;8.55;3.53;;;22.70;52.40;21.60;101283.00;;;;5048828;28;20044;-76
2022/10/30 10:42:38;;;;;;;8.02;3.85;;;22.60;52.40;21.60;101288.00;;;;5025283;28;20280;-76
2022/10/30 10:45:28;;;;;;;9.70;3.88;;;22.60;52.50;21.60;101294.00;;;;5024841;28;20029;-76
2022/10/30 10:48:29;;;;;;;8.93;3.55;;;22.60;52.50;21.60;101298.00;;;;5062232;28;20048;-76
2022/10/30 10:51:02;;;;;;;10.65;3.53;;;22.60;52.40;21.60;101304.00;;;;5054664;28;20111;-75
2022/10/30 10:53:43;;;;;;;16.25;4.88;;;22.60;52.40;21.60;101304.00;;;;5046131;28;20016;-75
2022/10/30 10:56:09;;;;;;;11.95;3.40;;;22.70;52.40;21.70;101306.00;;;;5043310;28;20028;-79
2022/10/30 10:58:49;;;;;;;10.20;3.50;;;22.70;52.30;21.70;101304.00;;;;5054399;28;20477;-76